createdAt,value
2022-09-24T00:01:52.771Z,14.03
2022-09-24T00:04:21.178Z,14.01
2022-09-24T00:06:49.411Z,13.99
2022-09-24T00:09:19.112Z,13.97
2022-09-24T00:11:47.119Z,13.94
2022-09-24T00:14:15.287Z,13.94
2022-09-24T00:16:44.103Z,13.91
2022-09-24T00:19:14.217Z,13.88
2022-09-24T00:21:43.101Z,13.87
2022-09-24T00:24:34.829Z,13.85
2022-09-24T00:27:03.087Z,13.83
2022-09-24T00:29:34.406Z,13.81
2022-09-24T00:32:03.320Z,13.77
2022-09-24T00:34:33.002Z,13.74
2022-09-24T00:37:01.226Z,13.71
2022-09-24T00:39:29.183Z,13.69
2022-09-24T00:41:57.051Z,13.67
2022-09-24T00:44:50.812Z,13.66
2022-09-24T00:47:27.529Z,13.63
2022-09-24T00:50:06.231Z,13.62
2022-09-24T00:52:35.245Z,13.61
2022-09-24T00:55:03.216Z,13.59
2022-09-24T00:57:32.878Z,13.58
2022-09-24T01:00:00.878Z,13.57
2022-09-24T01:02:28.826Z,13.56
2022-09-24T01:04:58.600Z,13.55
2022-09-24T01:07:26.556Z,13.54
2022-09-24T01:09:54.602Z,13.54
2022-09-24T01:12:31.214Z,13.54
2022-09-24T01:15:16.840Z,13.53
2022-09-24T01:17:51.297Z,13.52
2022-09-24T01:20:48.078Z,13.52
2022-09-24T01:23:28.987Z,13.50
2022-09-24T01:26:11.707Z,13.50
2022-09-24T01:28:52.782Z,13.50
2022-09-24T01:31:28.304Z,13.52
2022-09-24T01:33:59.337Z,13.52
2022-09-24T01:36:29.576Z,13.53
2022-09-24T01:38:59.093Z,13.53
2022-09-24T01:41:27.430Z,13.56
2022-09-24T01:43:55.619Z,13.58
2022-09-24T01:46:25.552Z,13.62
2022-09-24T01:48:53.600Z,13.66
2022-09-24T01:51:27.330Z,13.70
2022-09-24T01:54:01.634Z,13.74
2022-09-24T01:56:35.650Z,13.78
2022-09-24T01:59:08.234Z,13.80
2022-09-24T02:01:42.809Z,13.83
2022-09-24T02:04:16.766Z,13.87
2022-09-24T02:06:51.054Z,13.89
2022-09-24T02:09:33.464Z,13.91
2022-09-24T02:12:07.004Z,13.93
2022-09-24T02:14:41.083Z,13.95
2022-09-24T02:17:11.883Z,13.96
2022-09-24T02:19:42.950Z,13.98
2022-09-24T02:22:13.980Z,13.99
2022-09-24T02:24:47.777Z,14.01
2022-09-24T02:27:15.816Z,14.02
2022-09-24T02:29:44.513Z,14.03
2022-09-24T02:32:19.249Z,14.04
2022-09-24T02:34:48.880Z,14.06
2022-09-24T02:37:18.046Z,14.08
2022-09-24T02:39:45.921Z,14.11
2022-09-24T02:42:15.779Z,14.11
2022-09-24T02:44:43.656Z,14.13
2022-09-24T02:47:13.002Z,14.14
2022-09-24T02:49:41.070Z,14.14
2022-09-24T02:52:10.346Z,14.17
2022-09-24T02:54:38.372Z,14.17
2022-09-24T02:57:06.620Z,14.17
2022-09-24T02:59:34.810Z,14.19
2022-09-24T03:02:02.818Z,14.19
2022-09-24T03:04:32.226Z,14.20
2022-09-24T03:07:00.308Z,14.20
2022-09-24T03:09:28.416Z,14.20
2022-09-24T03:12:00.684Z,14.18
2022-09-24T03:14:29.001Z,14.18
2022-09-24T03:16:56.933Z,14.16
2022-09-24T03:19:24.822Z,14.16
2022-09-24T03:21:54.049Z,14.14
2022-09-24T03:24:22.139Z,14.13
2022-09-24T03:26:50.043Z,14.11
2022-09-24T03:29:37.884Z,14.09
2022-09-24T03:32:04.849Z,14.07
2022-09-24T03:34:32.722Z,14.05
2022-09-24T03:37:02.021Z,14.05
2022-09-24T03:39:29.893Z,14.03
2022-09-24T03:41:57.764Z,14.03
2022-09-24T03:44:25.867Z,14.03
2022-09-24T03:46:53.776Z,14.02
2022-09-24T03:49:23.474Z,14.03
2022-09-24T03:51:51.400Z,14.04
2022-09-24T03:54:20.879Z,14.06
2022-09-24T03:56:48.754Z,14.06
2022-09-24T03:59:16.704Z,14.05
2022-09-24T04:01:44.754Z,14.04
2022-09-24T04:04:14.458Z,14.02
2022-09-24T04:06:42.336Z,13.99
2022-09-24T04:09:10.604Z,14.00
2022-09-24T04:11:39.873Z,14.00
2022-09-24T04:14:07.925Z,14.00
2022-09-24T04:16:36.002Z,14.01
2022-09-24T04:19:03.907Z,14.01
2022-09-24T04:21:31.870Z,13.99
2022-09-24T04:23:59.722Z,13.96
2022-09-24T04:26:27.607Z,13.96
2022-09-24T04:28:59.346Z,13.93
2022-09-24T04:31:27.692Z,13.93
2022-09-24T04:33:55.864Z,13.92
2022-09-24T04:36:23.752Z,13.91
2022-09-24T04:38:51.660Z,13.91
2022-09-24T04:41:19.558Z,13.90
2022-09-24T04:43:47.451Z,13.90
2022-09-24T04:46:19.257Z,13.89
2022-09-24T04:48:47.178Z,13.88
2022-09-24T04:51:16.802Z,13.85
2022-09-24T04:53:46.113Z,13.80
2022-09-24T04:56:14.491Z,13.76
2022-09-24T04:58:42.380Z,13.72
2022-09-24T05:01:10.758Z,13.70
2022-09-24T05:03:40.004Z,13.72
2022-09-24T05:06:07.993Z,13.71
2022-09-24T05:08:35.888Z,13.71
2022-09-24T05:11:03.809Z,13.69
2022-09-24T05:13:31.853Z,13.69
2022-09-24T05:16:01.063Z,13.69
2022-09-24T05:18:29.364Z,13.69
2022-09-24T05:20:58.692Z,13.69
2022-09-24T05:23:26.554Z,13.69
2022-09-24T05:26:11.878Z,13.70
2022-09-24T05:28:40.591Z,13.69
2022-09-24T05:31:09.158Z,13.68
2022-09-24T05:33:37.623Z,13.69
2022-09-24T05:36:07.593Z,13.69
2022-09-24T05:38:35.444Z,13.71
2022-09-24T05:41:03.753Z,13.72
2022-09-24T05:43:31.882Z,13.74
2022-09-24T05:46:00.002Z,13.75
2022-09-24T05:48:28.295Z,13.73
2022-09-24T05:50:56.696Z,13.72
2022-09-24T05:53:25.983Z,13.71
2022-09-24T05:55:54.224Z,13.71
2022-09-24T05:58:22.405Z,13.70
2022-09-24T06:00:50.430Z,13.72
2022-09-24T06:03:19.816Z,13.72
2022-09-24T06:05:49.670Z,13.70
2022-09-24T06:08:18.590Z,13.68
2022-09-24T06:10:48.667Z,13.65
2022-09-24T06:13:20.991Z,13.62
2022-09-24T06:15:48.985Z,13.61
2022-09-24T06:18:17.206Z,13.56
2022-09-24T06:20:46.434Z,13.53
2022-09-24T06:23:14.368Z,13.49
2022-09-24T06:25:42.251Z,13.47
2022-09-24T06:28:11.524Z,13.46
2022-09-24T06:30:41.365Z,13.47
2022-09-24T06:33:11.125Z,13.46
2022-09-24T06:35:40.341Z,13.49
2022-09-24T06:38:11.550Z,13.50
2022-09-24T06:40:40.243Z,13.52
2022-09-24T06:43:08.905Z,13.55
2022-09-24T06:45:38.390Z,13.58
2022-09-24T06:48:07.512Z,13.62
2022-09-24T06:50:36.221Z,13.65
2022-09-24T06:53:06.813Z,13.69
2022-09-24T06:55:35.113Z,13.71
2022-09-24T06:58:04.720Z,13.72
2022-09-24T07:00:32.950Z,13.72
2022-09-24T07:03:02.326Z,13.72
2022-09-24T07:05:30.332Z,13.70
2022-09-24T07:07:58.228Z,13.70
2022-09-24T07:10:28.027Z,13.70
2022-09-24T07:12:56.278Z,13.67
2022-09-24T07:15:24.267Z,13.69
2022-09-24T07:17:56.493Z,13.67
2022-09-24T07:20:28.215Z,13.68
2022-09-24T07:22:56.909Z,13.67
2022-09-24T07:25:25.010Z,13.69
2022-09-24T07:27:53.222Z,13.68
2022-09-24T07:30:21.525Z,13.66
2022-09-24T07:32:50.656Z,13.66
2022-09-24T07:35:21.068Z,13.66
2022-09-24T07:37:50.467Z,13.64
2022-09-24T07:40:18.443Z,13.64
2022-09-24T07:42:49.799Z,13.64
2022-09-24T07:45:18.385Z,13.64
2022-09-24T07:47:46.243Z,13.65
2022-09-24T07:50:14.307Z,13.66
2022-09-24T07:52:42.258Z,13.66
2022-09-24T07:55:11.860Z,13.67
2022-09-24T07:57:40.467Z,13.65
2022-09-24T08:00:10.523Z,13.65
2022-09-24T08:02:38.573Z,13.64
2022-09-24T08:05:07.389Z,13.65
2022-09-24T08:07:35.473Z,13.64
2022-09-24T08:10:03.409Z,13.64
2022-09-24T08:12:32.687Z,13.65
2022-09-24T08:15:00.625Z,13.65
2022-09-24T08:17:28.527Z,13.68
2022-09-24T08:19:57.134Z,13.72
2022-09-24T08:22:26.391Z,13.77
2022-09-24T08:24:54.959Z,13.82
2022-09-24T08:27:23.896Z,13.87
2022-09-24T08:29:53.457Z,13.91
2022-09-24T08:32:21.392Z,13.96
2022-09-24T08:34:49.285Z,13.98
2022-09-24T08:37:17.323Z,14.01
2022-09-24T08:39:45.209Z,14.03
2022-09-24T08:42:16.415Z,14.06
2022-09-24T08:45:04.992Z,14.07
2022-09-24T08:47:43.118Z,14.09
2022-09-24T08:50:16.817Z,14.12
2022-09-24T08:52:58.540Z,14.13
2022-09-24T08:55:32.961Z,14.15
2022-09-24T08:58:21.432Z,14.19
2022-09-24T09:00:55.746Z,14.23
2022-09-24T09:03:36.567Z,14.26
2022-09-24T09:06:10.158Z,14.30
2022-09-24T09:09:05.729Z,14.33
2022-09-24T09:11:37.998Z,14.35
2022-09-24T09:14:12.733Z,14.36
2022-09-24T09:16:47.862Z,14.39
2022-09-24T09:19:18.614Z,14.38
2022-09-24T09:21:53.739Z,14.41
2022-09-24T09:24:24.300Z,14.43
2022-09-24T09:26:55.979Z,14.43
2022-09-24T09:29:26.517Z,14.45
2022-09-24T09:32:06.417Z,14.45
2022-09-24T09:34:48.082Z,14.48
2022-09-24T09:37:26.484Z,14.51
2022-09-24T09:40:02.926Z,14.63
2022-09-24T09:42:33.148Z,14.77
2022-09-24T09:45:02.962Z,14.92
2022-09-24T09:47:41.668Z,14.99
2022-09-24T09:50:21.062Z,15.07
2022-09-24T09:52:48.947Z,15.13
2022-09-24T09:55:25.616Z,15.17
2022-09-24T09:57:54.137Z,15.17
2022-09-24T10:00:28.253Z,15.20
2022-09-24T10:02:56.421Z,15.24
2022-09-24T10:05:28.795Z,15.28
2022-09-24T10:07:58.186Z,15.32
2022-09-24T10:10:28.468Z,15.37
2022-09-24T10:13:08.875Z,15.40
2022-09-24T10:15:50.231Z,15.46
2022-09-24T10:18:19.978Z,15.52
2022-09-24T10:20:49.612Z,15.56
2022-09-24T10:23:22.386Z,15.66
2022-09-24T10:25:53.355Z,15.76
2022-09-24T10:28:39.874Z,15.86
2022-09-24T10:31:13.323Z,15.95
2022-09-24T10:33:42.827Z,16.03
2022-09-24T10:36:18.104Z,16.06
2022-09-24T10:38:46.059Z,16.09
2022-09-24T10:41:23.606Z,16.12
2022-09-24T10:43:52.701Z,16.20
2022-09-24T10:46:50.351Z,16.30
2022-09-24T10:49:32.054Z,16.34
2022-09-24T10:52:10.902Z,16.38
2022-09-24T10:54:49.859Z,16.46
2022-09-24T10:57:29.734Z,16.49
2022-09-24T11:00:05.230Z,16.51
2022-09-24T11:02:52.346Z,16.55
2022-09-24T11:05:23.634Z,16.62
2022-09-24T11:08:03.145Z,16.66
2022-09-24T11:11:17.520Z,16.63
2022-09-24T11:13:55.867Z,16.67
2022-09-24T11:16:52.222Z,16.65
2022-09-24T11:19:51.061Z,16.64
2022-09-24T11:22:30.661Z,16.67
2022-09-24T11:25:19.828Z,16.81
2022-09-24T11:27:57.775Z,16.91
2022-09-24T11:30:36.301Z,16.98
2022-09-24T11:33:27.407Z,17.08
2022-09-24T11:36:07.641Z,17.17
2022-09-24T11:38:54.466Z,17.21
2022-09-24T11:41:37.113Z,17.41
2022-09-24T11:44:45.082Z,17.74
2022-09-24T11:47:26.204Z,18.04
2022-09-24T11:50:13.240Z,18.25
2022-09-24T11:52:46.424Z,18.44
2022-09-24T11:55:18.614Z,18.60
2022-09-24T11:57:54.218Z,18.69
2022-09-24T12:00:23.192Z,18.86
2022-09-24T12:02:55.757Z,18.95
2022-09-24T12:05:32.693Z,19.11
2022-09-24T12:08:09.623Z,19.21
2022-09-24T12:10:43.273Z,19.28
2022-09-24T12:13:19.807Z,19.46
2022-09-24T12:15:53.260Z,19.53
2022-09-24T12:18:26.773Z,19.60
2022-09-24T12:21:01.540Z,19.75
2022-09-24T12:23:33.647Z,19.90
2022-09-24T12:26:05.928Z,20.05
2022-09-24T12:29:00.576Z,20.10
2022-09-24T12:32:06.555Z,20.25
2022-09-24T12:34:45.399Z,20.45
2022-09-24T12:37:17.206Z,20.52
2022-09-24T12:39:53.912Z,20.65
2022-09-24T12:42:26.068Z,20.80
2022-09-24T12:45:00.741Z,20.87
2022-09-24T12:47:33.265Z,21.05
2022-09-24T12:50:03.539Z,21.12
2022-09-24T12:52:36.550Z,21.28
2022-09-24T12:55:06.577Z,21.34
2022-09-24T12:57:37.222Z,21.41
2022-09-24T13:00:37.811Z,21.48
2022-09-24T13:03:07.158Z,21.28
2022-09-24T13:05:47.935Z,20.71
2022-09-24T13:08:26.759Z,20.36
2022-09-24T13:10:56.908Z,20.66
2022-09-24T13:13:27.889Z,20.90
2022-09-24T13:16:04.541Z,20.76
2022-09-24T13:18:35.446Z,20.58
2022-09-24T13:21:06.711Z,20.74
2022-09-24T13:23:46.605Z,20.79
2022-09-24T13:26:27.561Z,20.83
2022-09-24T13:28:57.701Z,21.16
2022-09-24T13:31:34.357Z,21.44
2022-09-24T13:34:06.024Z,21.10
2022-09-24T13:36:45.256Z,20.61
2022-09-24T13:39:17.640Z,20.70
2022-09-24T13:41:54.988Z,21.02
2022-09-24T13:44:27.813Z,21.33
2022-09-24T13:47:01.179Z,21.39
2022-09-24T13:49:31.829Z,21.28
2022-09-24T13:52:11.105Z,21.12
2022-09-24T13:54:46.649Z,20.70
2022-09-24T13:57:21.581Z,20.18
2022-09-24T13:59:49.486Z,19.79
2022-09-24T14:02:26.988Z,19.56
2022-09-24T14:04:57.616Z,19.36
2022-09-24T14:07:26.346Z,19.21
2022-09-24T14:10:05.353Z,19.05
2022-09-24T14:12:33.485Z,18.89
2022-09-24T14:15:04.519Z,18.73
2022-09-24T14:17:33.825Z,18.71
2022-09-24T14:20:01.830Z,18.69
2022-09-24T14:22:34.585Z,18.95
2022-09-24T14:25:05.201Z,19.50
2022-09-24T14:27:36.389Z,19.84
2022-09-24T14:30:07.307Z,20.05
2022-09-24T14:32:39.395Z,20.41
2022-09-24T14:35:13.826Z,20.64
2022-09-24T14:37:48.800Z,20.99
2022-09-24T14:40:18.637Z,21.29
2022-09-24T14:42:49.193Z,21.50
2022-09-24T14:45:21.719Z,21.62
2022-09-24T14:48:00.855Z,21.89
2022-09-24T14:50:39.920Z,22.18
2022-09-24T14:53:21.533Z,22.49
2022-09-24T14:55:50.281Z,22.59
2022-09-24T14:58:36.420Z,22.77
2022-09-24T15:01:08.238Z,22.95
2022-09-24T15:03:42.661Z,23.18
2022-09-24T15:06:21.688Z,23.24
2022-09-24T15:09:00.610Z,22.93
2022-09-24T15:11:31.541Z,22.59
2022-09-24T15:14:01.371Z,22.26
2022-09-24T15:16:31.875Z,22.02
2022-09-24T15:19:15.449Z,21.69
2022-09-24T15:21:43.397Z,21.35
2022-09-24T15:24:12.092Z,21.43
2022-09-24T15:26:42.870Z,21.39
2022-09-24T15:29:18.506Z,20.96
2022-09-24T15:31:46.482Z,20.53
2022-09-24T15:34:19.769Z,20.22
2022-09-24T15:36:48.470Z,19.93
2022-09-24T15:39:18.468Z,19.65
2022-09-24T15:41:46.621Z,19.49
2022-09-24T15:44:21.943Z,19.30
2022-09-24T15:46:51.297Z,19.14
2022-09-24T15:49:22.190Z,19.00
2022-09-24T15:51:51.957Z,18.85
2022-09-24T15:54:20.268Z,18.79
2022-09-24T15:56:52.302Z,18.73
2022-09-24T15:59:21.709Z,19.21
2022-09-24T16:01:52.279Z,19.99
2022-09-24T16:04:21.652Z,20.35
2022-09-24T16:06:49.779Z,20.66
2022-09-24T16:09:17.720Z,21.05
2022-09-24T16:11:45.690Z,21.59
2022-09-24T16:14:13.586Z,22.11
2022-09-24T16:16:41.694Z,22.39
2022-09-24T16:19:10.281Z,22.27
2022-09-24T16:21:39.657Z,21.87
2022-09-24T16:24:07.827Z,21.44
2022-09-24T16:26:35.765Z,21.05
2022-09-24T16:29:04.421Z,20.73
2022-09-24T16:31:32.813Z,20.50
2022-09-24T16:34:01.087Z,20.64
2022-09-24T16:36:29.053Z,21.12
2022-09-24T16:38:58.647Z,21.50
2022-09-24T16:41:26.551Z,21.45
2022-09-24T16:43:57.150Z,21.02
2022-09-24T16:46:25.100Z,20.45
2022-09-24T16:48:53.042Z,19.92
2022-09-24T16:51:21.408Z,19.53
2022-09-24T16:53:49.945Z,19.32
2022-09-24T16:56:19.199Z,19.05
2022-09-24T16:58:48.235Z,18.83
2022-09-24T17:01:18.126Z,18.57
2022-09-24T17:03:51.186Z,18.24
2022-09-24T17:06:20.636Z,17.94
2022-09-24T17:09:06.085Z,17.76
2022-09-24T17:11:35.788Z,17.55
2022-09-24T17:14:04.414Z,17.35
2022-09-24T17:16:32.276Z,17.20
2022-09-24T17:19:00.560Z,17.08
2022-09-24T17:21:28.672Z,17.02
2022-09-24T17:23:56.913Z,16.99
2022-09-24T17:26:25.096Z,16.94
2022-09-24T17:28:55.364Z,16.92
2022-09-24T17:31:25.487Z,16.90
2022-09-24T17:33:57.250Z,16.90
2022-09-24T17:36:26.556Z,16.86
2022-09-24T17:38:56.168Z,16.81
2022-09-24T17:41:24.528Z,16.77
2022-09-24T17:43:54.205Z,16.72
2022-09-24T17:46:23.164Z,16.67
2022-09-24T17:48:53.056Z,16.63
2022-09-24T17:51:23.195Z,16.60
2022-09-24T17:53:53.043Z,16.57
2022-09-24T17:56:22.501Z,16.55
2022-09-24T17:58:52.218Z,16.54
2022-09-24T18:01:23.460Z,16.51
2022-09-24T18:03:54.873Z,16.48
2022-09-24T18:06:27.110Z,16.44
2022-09-24T18:08:58.096Z,16.41
2022-09-24T18:11:27.839Z,16.39
2022-09-24T18:13:57.726Z,16.36
2022-09-24T18:16:28.682Z,16.35
2022-09-24T18:18:57.999Z,16.33
2022-09-24T18:21:25.954Z,16.29
2022-09-24T18:23:55.134Z,16.28
2022-09-24T18:26:24.571Z,16.24
2022-09-24T18:28:54.719Z,16.20
2022-09-24T18:31:25.535Z,16.17
2022-09-24T18:33:55.637Z,16.13
2022-09-24T18:36:25.634Z,16.13
2022-09-24T18:38:54.378Z,16.11
2022-09-24T18:41:24.139Z,16.08
2022-09-24T18:43:52.844Z,16.08
2022-09-24T18:46:21.964Z,16.08
2022-09-24T18:48:52.414Z,16.05
2022-09-24T18:51:24.112Z,16.04
2022-09-24T18:53:53.834Z,16.02
2022-09-24T18:56:22.281Z,15.99
2022-09-24T18:58:50.162Z,15.95
2022-09-24T19:01:18.150Z,15.91
2022-09-24T19:03:46.063Z,15.84
2022-09-24T19:06:14.209Z,15.75
2022-09-24T19:08:44.396Z,15.69
2022-09-24T19:11:15.902Z,15.63
2022-09-24T19:13:48.488Z,15.58
2022-09-24T19:16:17.831Z,15.52
2022-09-24T19:18:45.797Z,15.46
2022-09-24T19:21:15.677Z,15.41
2022-09-24T19:23:46.931Z,15.36
2022-09-24T19:26:17.082Z,15.31
2022-09-24T19:28:45.543Z,15.27
2022-09-24T19:31:15.060Z,15.25
2022-09-24T19:33:44.051Z,15.24
2022-09-24T19:36:12.270Z,15.24
2022-09-24T19:38:40.374Z,15.24
2022-09-24T19:41:13.506Z,15.22
2022-09-24T19:43:43.646Z,15.19
2022-09-24T19:46:14.594Z,15.16
2022-09-24T19:48:44.397Z,15.13
2022-09-24T19:51:15.365Z,15.04
2022-09-24T19:53:43.776Z,14.96
2022-09-24T19:56:14.269Z,14.89
2022-09-24T19:58:42.384Z,14.84
2022-09-24T20:01:16.340Z,14.79
2022-09-24T20:03:45.530Z,14.75
2022-09-24T20:06:15.179Z,14.70
2022-09-24T20:08:43.814Z,14.67
2022-09-24T20:11:15.377Z,14.64
2022-09-24T20:13:46.389Z,14.63
2022-09-24T20:16:16.351Z,14.60
2022-09-24T20:18:45.077Z,14.57
2022-09-24T20:21:13.672Z,14.54
2022-09-24T20:23:42.019Z,14.51
2022-09-24T20:26:30.877Z,14.49
2022-09-24T20:28:59.181Z,14.46
2022-09-24T20:31:27.380Z,14.43
2022-09-24T20:33:55.777Z,14.40
2022-09-24T20:36:24.962Z,14.37
2022-09-24T20:38:53.939Z,14.34
2022-09-24T20:41:25.635Z,14.28
2022-09-24T20:43:55.591Z,14.26
2022-09-24T20:46:25.720Z,14.22
2022-09-24T20:48:54.770Z,14.17
2022-09-24T20:51:23.071Z,14.11
2022-09-24T20:53:51.457Z,14.06
2022-09-24T20:56:20.044Z,14.03
2022-09-24T20:58:53.272Z,13.99
2022-09-24T21:01:22.635Z,13.97
2022-09-24T21:03:51.094Z,13.94
2022-09-24T21:06:22.925Z,13.92
2022-09-24T21:08:51.227Z,13.88
2022-09-24T21:11:22.876Z,13.87
2022-09-24T21:13:54.704Z,13.84
2022-09-24T21:16:24.985Z,13.82
2022-09-24T21:18:55.221Z,13.79
2022-09-24T21:21:24.724Z,13.77
2022-09-24T21:23:54.312Z,13.74
2022-09-24T21:26:23.828Z,13.73
2022-09-24T21:28:56.076Z,13.71
2022-09-24T21:31:26.443Z,13.70
2022-09-24T21:33:54.617Z,13.68
2022-09-24T21:36:24.325Z,13.65
2022-09-24T21:38:55.378Z,13.63
2022-09-24T21:41:23.507Z,13.60
2022-09-24T21:43:53.524Z,13.59
2022-09-24T21:46:21.690Z,13.54
2022-09-24T21:48:51.055Z,13.51
2022-09-24T21:51:21.777Z,13.49
2022-09-24T21:53:50.135Z,13.46
2022-09-24T21:56:19.347Z,13.42
2022-09-24T21:58:47.352Z,13.39
2022-09-24T22:01:19.548Z,13.36
2022-09-24T22:03:49.785Z,13.33
2022-09-24T22:06:17.694Z,13.31
2022-09-24T22:08:47.202Z,13.27
2022-09-24T22:11:15.570Z,13.23
2022-09-24T22:13:43.726Z,13.20
2022-09-24T22:16:12.943Z,13.18
2022-09-24T22:18:42.196Z,13.15
2022-09-24T22:21:11.815Z,13.11
2022-09-24T22:23:40.646Z,13.09
2022-09-24T22:26:09.767Z,13.09
2022-09-24T22:28:38.726Z,13.10
2022-09-24T22:31:08.276Z,13.14
2022-09-24T22:33:54.298Z,13.18
2022-09-24T22:36:24.401Z,13.18
2022-09-24T22:38:53.216Z,13.18
2022-09-24T22:41:21.466Z,13.15
2022-09-24T22:43:49.498Z,13.17
2022-09-24T22:46:17.974Z,13.22
2022-09-24T22:48:47.482Z,13.28
2022-09-24T22:51:16.237Z,13.33
2022-09-24T22:53:45.511Z,13.38
2022-09-24T22:56:15.176Z,13.40
2022-09-24T22:58:44.979Z,13.41
2022-09-24T23:01:15.420Z,13.43
2022-09-24T23:03:44.356Z,13.44
2022-09-24T23:06:12.835Z,13.46
2022-09-24T23:08:42.450Z,13.47
2022-09-24T23:11:13.930Z,13.46
2022-09-24T23:13:45.165Z,13.44
2022-09-24T23:16:15.752Z,13.43
2022-09-24T23:18:45.104Z,13.40
2022-09-24T23:21:15.794Z,13.37
2022-09-24T23:23:44.658Z,13.34
2022-09-24T23:26:16.926Z,13.30
2022-09-24T23:28:46.145Z,13.28
2022-09-24T23:31:16.161Z,13.24
2022-09-24T23:33:44.331Z,13.20
2022-09-24T23:36:14.303Z,13.17
2022-09-24T23:38:43.301Z,13.11
2022-09-24T23:41:13.827Z,13.04
2022-09-24T23:43:42.365Z,12.98
2022-09-24T23:46:11.533Z,12.91
2022-09-24T23:48:40.107Z,12.86
2022-09-24T23:51:08.881Z,12.80
2022-09-24T23:53:37.737Z,12.73
2022-09-24T23:56:07.242Z,12.66
2022-09-24T23:58:36.724Z,12.59
